Time;durP1;ratioP1;P1;durP2;ratioP2;P2;SDS_P1;SDS_P2;PMS_P1;PMS_P2;Temp;Humidity;BMP_temperature;BMP_pressure;BME280_temperature;BME280_humidity;BME280_pressure;Samples;Min_cycle;Max_cycle;Signal;HPM_P1;HPM_P2
2024/02/04 00:02:09;;;;;;;2.33;2.15;;;;;;;3.85;100.00;100753.88;4886394;29;20056;-72
2024/02/04 00:04:35;;;;;;;0.95;0.93;;;;;;;3.58;100.00;100723.63;4890301;29;20056;-71
2024/02/04 00:07:01;;;;;;;0.93;0.90;;;;;;;3.56;100.00;100709.69;4883264;29;20120;-72
2024/02/04 00:09:28;;;;;;;0.32;0.32;;;;;;;4.29;100.00;100814.16;4872795;29;20040;-73
2024/02/04 00:11:54;;;;;;;1.38;1.33;;;;;;;3.94;100.00;100737.72;4888532;29;20048;-73
2024/02/04 00:14:19;;;;;;;0.30;0.30;;;;;;;4.49;100.00;100814.78;4888233;29;20590;-73
2024/02/04 00:16:45;;;;;;;0.40;0.40;;;;;;;3.63;100.00;100741.94;4886048;29;20128;-72
2024/02/04 00:19:10;;;;;;;2.60;2.50;;;;;;;4.11;100.00;100821.34;4887972;29;20036;-75
2024/02/04 00:21:36;;;;;;;0.50;0.50;;;;;;;3.66;100.00;100726.44;4884536;29;20044;-72
2024/02/04 00:24:02;;;;;;;1.95;1.88;;;;;;;4.15;100.00;100797.25;4885793;29;20481;-72
2024/02/04 00:26:27;;;;;;;1.42;1.33;;;;;;;3.51;100.00;100689.59;4883907;29;20501;-72
2024/02/04 00:28:53;;;;;;;0.73;0.73;;;;;;;3.71;100.00;100698.06;4887251;29;20057;-73
2024/02/04 00:31:18;;;;;;;0.90;0.90;;;;;;;4.30;100.00;100779.56;4870307;29;20069;-75
2024/02/04 00:33:44;;;;;;;1.38;1.30;;;;;;;4.24;100.00;100789.75;4886606;29;20033;-73
2024/02/04 00:36:09;;;;;;;0.30;0.30;;;;;;;3.84;100.00;100701.91;4886103;29;20829;-74
2024/02/04 00:38:35;;;;;;;1.38;0.65;;;;;;;4.11;100.00;100759.03;4887692;29;20143;-73
2024/02/04 00:41:00;;;;;;;2.47;2.38;;;;;;;3.90;100.00;100728.94;4888058;29;20479;-72
2024/02/04 00:43:26;;;;;;;1.15;1.05;;;;;;;3.96;100.00;100736.94;4884695;29;20489;-72
2024/02/04 00:45:51;;;;;;;1.52;1.48;;;;;;;4.13;100.00;100767.75;4886162;29;20056;-72
2024/02/04 00:48:17;;;;;;;0.40;0.40;;;;;;;3.44;100.00;100669.50;4867534;29;21273;-73
2024/02/04 00:50:42;;;;;;;1.92;1.85;;;;;;;3.39;100.00;100674.53;4890866;29;20104;-72
2024/02/04 00:53:08;;;;;;;3.60;3.30;;;;;;;3.53;100.00;100707.00;4890928;29;20580;-73
2024/02/04 00:55:34;;;;;;;2.58;2.47;;;;;;;3.96;100.00;100739.53;4892898;29;20059;-72
2024/02/04 00:58:01;;;;;;;1.95;1.85;;;;;;;3.90;100.00;100746.25;4894658;29;20453;-73
2024/02/04 01:00:27;;;;;;;0.30;0.30;;;;;;;3.79;100.00;100705.28;4890584;29;20052;-73
2024/02/04 01:02:52;;;;;;;23.23;21.02;;;;;;;3.87;100.00;100735.78;4894100;29;20591;-73
2024/02/04 01:05:19;;;;;;;26.05;5.93;;;;;;;3.68;100.00;100709.22;4906916;29;20512;-72
2024/02/04 01:07:45;;;;;;;0.40;0.40;;;;;;;3.51;100.00;100659.38;4892213;29;20099;-73
2024/02/04 01:10:10;;;;;;;0.88;0.88;;;;;;;3.34;100.00;100632.88;4891938;29;20826;-73
2024/02/04 01:12:36;;;;;;;9.60;8.98;;;;;;;3.42;100.00;100650.41;4891793;29;20064;-74
2024/02/04 01:15:05;;;;;;;0.40;0.40;;;;;;;3.84;100.00;100725.28;4894043;29;20505;-72
2024/02/04 01:17:30;;;;;;;1.85;1.75;;;;;;;3.34;100.00;100643.25;4888899;29;20060;-72
2024/02/04 01:19:56;;;;;;;1.20;1.17;;;;;;;3.57;100.00;100702.78;4887648;29;20053;-74
2024/02/04 01:22:26;;;;;;;1.55;1.48;;;;;;;3.64;100.00;100712.53;4875287;29;20033;-74
2024/02/04 01:24:51;;;;;;;0.88;0.88;;;;;;;3.47;100.00;100670.50;4892835;29;20088;-73
2024/02/04 01:27:17;;;;;;;1.17;1.17;;;;;;;3.22;100.00;100648.03;4886919;29;20041;-74
2024/02/04 01:29:43;;;;;;;0.40;0.30;;;;;;;3.26;100.00;100680.16;4893463;29;20115;-72
2024/02/04 01:32:08;;;;;;;0.82;0.82;;;;;;;3.74;100.00;100748.34;4894223;29;20049;-72
2024/02/04 01:34:34;;;;;;;0.30;0.30;;;;;;;3.64;100.00;100748.00;4893767;29;22107;-73
2024/02/04 01:36:59;;;;;;;8.60;8.13;;;;;;;3.61;100.00;100751.38;4889729;29;20075;-71
2024/02/04 01:39:25;;;;;;;1.15;1.05;;;;;;;3.54;100.00;100754.59;4892797;29;20049;-73
2024/02/04 01:41:50;;;;;;;0.95;0.95;;;;;;;3.62;100.00;100739.28;4894388;29;20071;-72
2024/02/04 01:44:17;;;;;;;1.55;1.45;;;;;;;3.63;100.00;100739.34;4891243;29;20139;-72
2024/02/04 01:46:44;;;;;;;5.40;5.05;;;;;;;3.02;100.00;100646.47;4892546;29;20480;-72
2024/02/04 01:49:10;;;;;;;0.50;0.50;;;;;;;3.07;100.00;100671.75;4894992;29;20040;-72
2024/02/04 01:51:36;;;;;;;0.70;0.70;;;;;;;3.38;100.00;100735.91;4895513;29;20065;-72
2024/02/04 01:54:03;;;;;;;1.25;1.00;;;;;;;3.42;100.00;100731.72;4889052;29;20072;-73
2024/02/04 01:56:29;;;;;;;0.30;0.30;;;;;;;3.14;100.00;100724.69;4903738;29;20478;-72
2024/02/04 01:58:55;;;;;;;0.60;0.60;;;;;;;2.88;100.00;100646.91;4889076;29;20049;-75
2024/02/04 02:01:22;;;;;;;3.75;3.55;;;;;;;3.09;100.00;100659.72;4889736;29;20575;-72
2024/02/04 02:03:50;;;;;;;0.50;0.50;;;;;;;2.92;100.00;100637.50;4891422;29;20036;-72
2024/02/04 02:06:16;;;;;;;0.47;0.47;;;;;;;2.96;100.00;100636.78;4890442;29;20053;-72
2024/02/04 02:08:42;;;;;;;6.10;3.20;;;;;;;3.00;100.00;100651.63;4885525;29;20044;-73
2024/02/04 02:11:18;;;;;;;5.13;4.72;;;;;;;2.96;100.00;100623.84;4887833;29;20049;-73
2024/02/04 02:13:49;;;;;;;7.32;6.30;;;;;;;3.53;100.00;100726.88;4885668;29;20074;-72
2024/02/04 02:16:19;;;;;;;0.40;0.40;;;;;;;3.51;100.00;100719.06;4886550;29;20040;-74
2024/02/04 02:18:44;;;;;;;0.77;0.77;;;;;;;3.58;100.00;100722.72;4888835;29;20147;-73
2024/02/04 02:21:27;;;;;;;1.85;1.75;;;;;;;3.36;100.00;100722.00;4887549;29;20141;-72
2024/02/04 02:24:17;;;;;;;0.40;0.40;;;;;;;3.38;100.00;100724.66;4884825;29;20421;-73
2024/02/04 02:26:43;;;;;;;6.40;6.07;;;;;;;3.28;100.00;100707.03;4887503;29;20068;-74
2024/02/04 02:29:09;;;;;;;1.45;1.35;;;;;;;3.06;100.00;100669.97;4884147;29;20052;-73
2024/02/04 02:31:38;;;;;;;5.05;4.65;;;;;;;3.20;100.00;100726.59;4885671;29;20040;-73
2024/02/04 02:34:04;;;;;;;12.23;11.07;;;;;;;2.76;100.00;100643.84;4887262;29;20044;-72
2024/02/04 02:36:36;;;;;;;0.98;0.93;;;;;;;3.26;100.00;100714.75;4886316;29;20483;-73
2024/02/04 02:39:21;;;;;;;0.40;0.40;;;;;;;3.22;100.00;100720.63;4883580;29;20128;-73
2024/02/04 02:41:51;;;;;;;0.30;0.30;;;;;;;3.11;100.00;100707.31;4869248;29;20430;-74
2024/02/04 02:44:17;;;;;;;0.73;0.73;;;;;;;2.92;100.00;100661.69;4888042;29;20748;-75
2024/02/04 02:46:44;;;;;;;3.30;3.05;;;;;;;3.15;100.00;100711.75;4887044;29;20168;-72
2024/02/04 02:49:10;;;;;;;1.08;1.02;;;;;;;2.91;100.00;100666.84;4886015;29;20040;-74
2024/02/04 02:51:35;;;;;;;8.77;7.40;;;;;;;3.03;100.00;100677.66;4881089;29;20137;-72
2024/02/04 02:54:01;;;;;;;0.50;0.50;;;;;;;2.51;100.00;100604.16;4883429;29;20148;-72
2024/02/04 02:56:26;;;;;;;0.85;0.85;;;;;;;3.03;100.00;100694.91;4884687;29;20059;-73
2024/02/04 02:58:52;;;;;;;0.50;0.50;;;;;;;1.82;100.00;100500.69;4885865;29;20164;-73
2024/02/04 03:01:17;;;;;;;8.10;7.57;;;;;;;3.01;100.00;100697.44;4886734;29;20075;-74
2024/02/04 03:03:43;;;;;;;3.10;2.90;;;;;;;3.15;100.00;100703.97;4887068;29;20557;-72
2024/02/04 03:06:08;;;;;;;1.35;1.25;;;;;;;2.63;100.00;100610.59;4888084;29;20081;-73
2024/02/04 03:08:34;;;;;;;0.50;0.50;;;;;;;3.23;100.00;100704.28;4887032;29;20144;-73
2024/02/04 03:10:59;;;;;;;3.85;3.70;;;;;;;3.10;100.00;100692.56;4889960;29;20051;-71
2024/02/04 03:13:25;;;;;;;1.65;1.55;;;;;;;2.30;100.00;100549.88;4887218;29;23819;-74
2024/02/04 03:15:50;;;;;;;1.27;1.27;;;;;;;3.14;100.00;100698.75;4888678;29;20426;-72
2024/02/04 03:18:16;;;;;;;10.15;9.50;;;;;;;2.87;100.00;100633.88;4889659;29;20051;-75
2024/02/04 03:20:41;;;;;;;2.85;2.65;;;;;;;3.07;100.00;100673.47;4885747;29;20052;-73
2024/02/04 03:23:07;;;;;;;0.93;0.93;;;;;;;3.16;100.00;100687.63;4880341;29;20140;-73
2024/02/04 03:25:32;;;;;;;2.05;1.95;;;;;;;3.14;100.00;100685.81;4887152;29;20043;-73
2024/02/04 03:27:59;;;;;;;2.08;1.98;;;;;;;2.56;100.00;100575.81;4888370;29;20044;-74
2024/02/04 03:30:25;;;;;;;0.60;0.47;;;;;;;2.59;100.00;100595.78;4891371;29;20477;-74
2024/02/04 03:32:50;;;;;;;0.73;0.73;;;;;;;2.76;100.00;100628.31;4890768;29;20051;-73
2024/02/04 03:35:16;;;;;;;0.40;0.40;;;;;;;3.11;100.00;100685.69;4870523;29;20169;-74
2024/02/04 03:37:41;;;;;;;1.15;1.13;;;;;;;3.20;100.00;100704.16;4888838;29;20051;-73
2024/02/04 03:40:07;;;;;;;3.10;3.00;;;;;;;2.87;100.00;100657.22;4890601;29;20092;-74
2024/02/04 03:42:33;;;;;;;4.57;4.38;;;;;;;3.04;100.00;100712.22;4888264;29;20435;-73
2024/02/04 03:44:58;;;;;;;1.30;1.20;;;;;;;2.81;100.00;100709.72;4889019;29;20052;-74
2024/02/04 03:47:24;;;;;;;0.40;0.40;;;;;;;2.66;100.00;100641.78;4887181;29;20420;-71
2024/02/04 03:49:49;;;;;;;0.30;0.30;;;;;;;2.36;100.00;100594.94;4888387;29;20071;-72
2024/02/04 03:52:15;;;;;;;0.63;0.63;;;;;;;2.50;100.00;100617.91;4885863;29;20123;-73
2024/02/04 03:54:40;;;;;;;1.05;1.05;;;;;;;3.11;100.00;100706.41;4890487;29;20513;-72
2024/02/04 03:57:06;;;;;;;1.00;1.00;;;;;;;3.12;100.00;100718.56;4887916;29;20063;-73
2024/02/04 03:59:31;;;;;;;0.50;0.50;;;;;;;3.01;100.00;100730.25;4891931;29;20128;-72
2024/02/04 04:01:57;;;;;;;1.25;0.75;;;;;;;2.93;100.00;100740.38;4885046;29;20052;-73
2024/02/04 04:04:23;;;;;;;0.40;0.40;;;;;;;3.01;100.00;100722.50;4866224;29;20434;-74
2024/02/04 04:06:49;;;;;;;0.90;0.90;;;;;;;2.67;100.00;100657.38;4890499;29;20036;-73
2024/02/04 04:09:14;;;;;;;0.70;0.70;;;;;;;3.06;100.00;100732.19;4888297;29;20131;-74
2024/02/04 04:11:40;;;;;;;1.20;1.10;;;;;;;2.49;100.00;100621.34;4889100;29;20049;-74
2024/02/04 04:14:06;;;;;;;6.10;5.78;;;;;;;3.13;100.00;100725.50;4889935;29;20644;-73
2024/02/04 04:16:31;;;;;;;0.30;0.30;;;;;;;2.48;100.00;100618.69;4887830;29;20028;-74
2024/02/04 04:18:58;;;;;;;1.65;1.55;;;;;;;2.67;100.00;100643.53;4889396;29;20120;-75
2024/02/04 04:21:24;;;;;;;5.70;5.25;;;;;;;2.56;100.00;100634.53;4870324;29;20048;-73
2024/02/04 04:23:50;;;;;;;2.58;2.38;;;;;;;3.23;100.00;100734.47;4888276;29;20040;-73
2024/02/04 04:26:15;;;;;;;0.40;0.40;;;;;;;3.22;100.00;100711.97;4884114;29;20052;-73
2024/02/04 04:28:41;;;;;;;0.30;0.30;;;;;;;3.26;100.00;100726.81;4889143;29;20044;-72
2024/02/04 04:31:06;;;;;;;0.52;0.52;;;;;;;3.33;100.00;100710.66;4890857;29;20068;-72
2024/02/04 04:33:32;;;;;;;0.75;0.65;;;;;;;2.86;100.00;100630.41;4889260;29;20897;-74
2024/02/04 04:35:58;;;;;;;1.60;1.50;;;;;;;3.17;100.00;100678.13;4886769;29;20059;-72
2024/02/04 04:38:23;;;;;;;3.70;3.50;;;;;;;3.16;100.00;100684.13;4888290;29;20518;-73
2024/02/04 04:40:49;;;;;;;0.40;0.40;;;;;;;2.93;100.00;100673.84;4889911;29;20048;-72
2024/02/04 04:43:14;;;;;;;2.20;2.03;;;;;;;3.16;100.00;100713.53;4890089;29;20052;-73
2024/02/04 04:45:40;;;;;;;4.78;4.45;;;;;;;2.48;100.00;100626.44;4891056;29;20029;-72
2024/02/04 04:48:09;;;;;;;0.57;0.57;;;;;;;2.99;100.00;100686.13;4883245;29;20064;-73
2024/02/04 04:50:35;;;;;;;4.72;3.03;;;;;;;3.14;100.00;100722.97;4881980;29;20052;-75
2024/02/04 04:53:01;;;;;;;4.00;3.72;;;;;;;3.19;100.00;100720.53;4884782;29;20049;-74
2024/02/04 04:55:26;;;;;;;2.50;2.30;;;;;;;3.23;100.00;100713.72;4888859;29;20107;-73
2024/02/04 04:57:52;;;;;;;2.38;2.28;;;;;;;2.66;100.00;100621.94;4890714;29;20032;-72
2024/02/04 05:00:18;;;;;;;0.30;0.30;;;;;;;2.71;100.00;100645.41;4886746;29;20044;-73
2024/02/04 05:02:44;;;;;;;0.85;0.85;;;;;;;2.24;100.00;100634.22;4887954;29;20088;-74
2024/02/04 05:05:13;;;;;;;5.65;5.32;;;;;;;2.50;100.00;100637.75;4887174;29;20101;-74
2024/02/04 05:07:38;;;;;;;1.05;1.05;;;;;;;3.02;100.00;100724.25;4886582;29;20052;-73
2024/02/04 05:10:04;;;;;;;3.72;3.40;;;;;;;2.88;100.00;100737.59;4891746;29;20025;-72
2024/02/04 05:12:32;;;;;;;0.52;0.52;;;;;;;2.05;100.00;100638.69;4883598;29;20068;-73
2024/02/04 05:14:58;;;;;;;0.40;0.40;;;;;;;2.45;100.00;100654.84;4884383;29;20044;-73
2024/02/04 05:17:23;;;;;;;1.58;1.52;;;;;;;2.35;100.00;100647.56;4885625;29;20080;-73
2024/02/04 05:19:49;;;;;;;2.50;2.40;;;;;;;2.25;100.00;100613.56;4889851;29;20468;-72
2024/02/04 05:22:14;;;;;;;0.30;0.30;;;;;;;3.06;100.00;100742.53;4890319;29;20064;-72
2024/02/04 05:24:41;;;;;;;0.70;0.70;;;;;;;2.93;100.00;100735.19;4889304;29;20036;-72
2024/02/04 05:27:06;;;;;;;0.40;0.40;;;;;;;2.94;100.00;100723.97;4886102;29;20052;-73
2024/02/04 05:29:32;;;;;;;0.30;0.30;;;;;;;2.45;100.00;100637.59;4889969;29;20049;-72
2024/02/04 05:31:57;;;;;;;4.43;4.20;;;;;;;2.67;100.00;100705.72;4884690;29;20137;-72
2024/02/04 05:34:23;;;;;;;0.40;0.40;;;;;;;2.21;100.00;100637.56;4887929;29;20115;-73
2024/02/04 05:36:48;;;;;;;2.10;1.92;;;;;;;2.40;100.00;100627.91;4890295;29;20041;-73
2024/02/04 05:39:16;;;;;;;7.43;5.43;;;;;;;2.52;100.00;100662.88;4892984;29;20117;-72
2024/02/04 05:41:42;;;;;;;0.90;0.90;;;;;;;3.05;100.00;100730.44;4891655;29;20208;-72
2024/02/04 05:44:08;;;;;;;3.08;2.83;;;;;;;2.73;100.00;100674.84;4892738;29;20045;-72
2024/02/04 05:46:38;;;;;;;0.38;0.38;;;;;;;2.73;100.00;100651.53;4891743;29;20489;-72
2024/02/04 05:49:04;;;;;;;1.63;1.52;;;;;;;2.71;100.00;100654.06;4892991;29;20459;-73
2024/02/04 05:51:33;;;;;;;3.10;2.90;;;;;;;2.60;100.00;100637.28;4892392;29;20051;-74
2024/02/04 05:53:58;;;;;;;6.07;5.00;;;;;;;2.48;100.00;100626.44;4881661;29;20659;-73
2024/02/04 05:56:24;;;;;;;5.68;5.00;;;;;;;2.53;100.00;100631.00;4886744;29;20041;-74
2024/02/04 05:58:50;;;;;;;0.40;0.40;;;;;;;2.58;100.00;100641.53;4890524;29;20124;-73
2024/02/04 06:01:16;;;;;;;0.30;0.30;;;;;;;3.25;100.00;100735.41;4887396;29;20037;-76
2024/02/04 06:03:43;;;;;;;6.38;5.68;;;;;;;2.98;100.00;100741.41;4889087;29;20045;-73
2024/02/04 06:06:09;;;;;;;2.05;1.95;;;;;;;2.57;100.00;100654.41;4890846;29;20052;-74
2024/02/04 06:08:34;;;;;;;1.95;1.83;;;;;;;3.26;100.00;100755.34;4884734;29;20061;-74
2024/02/04 06:11:00;;;;;;;0.55;0.45;;;;;;;3.34;100.00;100753.91;4888032;29;20532;-74
2024/02/04 06:13:26;;;;;;;0.65;0.65;;;;;;;2.78;100.00;100669.84;4888592;29;20044;-72
2024/02/04 06:15:51;;;;;;;0.73;0.68;;;;;;;3.41;100.00;100755.88;4891181;29;20063;-73
2024/02/04 06:18:17;;;;;;;0.95;0.95;;;;;;;3.36;100.00;100760.91;4889717;29;20052;-72
2024/02/04 06:20:43;;;;;;;3.03;2.83;;;;;;;3.03;100.00;100672.47;4888388;29;20655;-73
2024/02/04 06:23:08;;;;;;;1.25;1.15;;;;;;;2.36;100.00;100644.16;4889620;29;20059;-72
2024/02/04 06:25:34;;;;;;;0.40;0.40;;;;;;;2.81;100.00;100664.75;4896536;29;20389;-72
2024/02/04 06:27:59;;;;;;;0.77;0.77;;;;;;;3.40;100.00;100761.91;4912276;29;20039;-73
2024/02/04 06:30:24;;;;;;;2.75;2.65;;;;;;;3.44;100.00;100773.25;4908793;29;20055;-73
2024/02/04 06:32:50;;;;;;;3.03;2.83;;;;;;;3.52;100.00;100771.81;4909362;29;20086;-73
2024/02/04 06:35:16;;;;;;;0.93;0.90;;;;;;;3.53;100.00;100769.25;4905441;29;20052;-73
2024/02/04 06:37:42;;;;;;;0.40;0.40;;;;;;;3.08;100.00;100677.81;4908208;29;20064;-73
2024/02/04 06:40:10;;;;;;;8.63;8.18;;;;;;;3.29;100.00;100699.28;4904324;29;20536;-72
2024/02/04 06:42:36;;;;;;;0.50;0.50;;;;;;;3.53;100.00;100764.06;4906187;29;20536;-72
2024/02/04 06:45:01;;;;;;;1.13;1.08;;;;;;;3.11;100.00;100664.94;4902987;29;20197;-73
2024/02/04 06:47:27;;;;;;;0.60;0.60;;;;;;;3.64;100.00;100756.66;4907299;29;20087;-74
2024/02/04 06:49:52;;;;;;;6.50;5.60;;;;;;;3.49;100.00;100743.16;4905819;29;20190;-72
2024/02/04 06:52:18;;;;;;;2.22;2.10;;;;;;;3.49;100.00;100749.25;4908821;29;20047;-73
2024/02/04 06:54:44;;;;;;;0.95;0.95;;;;;;;3.82;100.00;100761.59;4910702;29;20048;-73
2024/02/04 06:57:09;;;;;;;4.43;4.22;;;;;;;3.16;100.00;100656.50;4906694;29;20188;-72
2024/02/04 06:59:35;;;;;;;5.40;5.10;;;;;;;3.27;100.00;100681.91;4907117;29;20044;-72
2024/02/04 07:02:00;;;;;;;1.30;1.20;;;;;;;3.12;100.00;100664.13;4906203;29;20087;-72
2024/02/04 07:04:26;;;;;;;0.30;0.30;;;;;;;3.73;100.00;100756.09;4906421;29;20123;-73
2024/02/04 07:06:51;;;;;;;2.15;2.05;;;;;;;3.66;100.00;100748.94;4905494;29;20107;-72
2024/02/04 07:09:17;;;;;;;2.67;2.58;;;;;;;3.88;100.00;100759.16;4905158;29;20135;-73
2024/02/04 07:11:43;;;;;;;0.50;0.50;;;;;;;3.68;100.00;100726.50;4904530;29;20136;-72
2024/02/04 07:14:08;;;;;;;3.17;3.00;;;;;;;3.94;100.00;100759.38;4900454;29;20064;-73
2024/02/04 07:16:34;;;;;;;4.43;4.18;;;;;;;3.95;100.00;100740.34;4904330;29;20080;-73
2024/02/04 07:18:59;;;;;;;0.80;0.80;;;;;;;3.56;100.00;100667.31;4908254;29;20028;-73
2024/02/04 07:21:25;;;;;;;7.80;7.15;;;;;;;3.98;100.00;100737.88;4905295;29;20753;-73
2024/02/04 07:23:50;;;;;;;1.25;1.25;;;;;;;3.44;100.00;100665.22;4907889;29;20044;-72
2024/02/04 07:26:16;;;;;;;5.25;5.05;;;;;;;3.63;100.00;100674.47;4907320;29;20405;-72
2024/02/04 07:28:42;;;;;;;2.50;2.40;;;;;;;3.48;100.00;100655.78;4910124;29;20055;-73
2024/02/04 07:31:07;;;;;;;0.90;0.90;;;;;;;3.92;100.00;100742.88;4906494;29;20381;-73
2024/02/04 07:33:33;;;;;;;2.08;1.90;;;;;;;4.15;100.00;100753.13;4903711;29;20115;-72
2024/02/04 07:35:58;;;;;;;5.78;2.92;;;;;;;4.17;100.00;100754.06;4906610;29;20159;-73
2024/02/04 07:38:24;;;;;;;8.32;7.68;;;;;;;4.27;100.00;100745.69;4890287;29;20090;-74
2024/02/04 07:40:49;;;;;;;0.88;0.88;;;;;;;4.17;100.00;100722.88;4903800;29;20059;-76
2024/02/04 07:43:15;;;;;;;0.95;0.63;;;;;;;4.01;100.00;100693.84;4907032;29;20044;-75
2024/02/04 07:45:41;;;;;;;0.73;0.73;;;;;;;3.87;100.00;100642.34;4900165;29;20461;-74
2024/02/04 07:48:09;;;;;;;0.50;0.50;;;;;;;4.26;100.00;100699.78;4909179;29;20092;-74
2024/02/04 07:50:34;;;;;;;2.03;1.83;;;;;;;4.09;100.00;100667.22;4910317;29;20587;-74
2024/02/04 07:53:00;;;;;;;0.50;0.50;;;;;;;4.11;100.00;100689.81;4908767;29;20075;-74
2024/02/04 07:55:25;;;;;;;0.30;0.30;;;;;;;3.88;100.00;100612.94;4908402;29;20503;-74
2024/02/04 07:57:51;;;;;;;0.50;0.50;;;;;;;4.09;100.00;100634.34;4909589;29;20024;-75
2024/02/04 08:00:17;;;;;;;1.95;1.85;;;;;;;4.21;100.00;100652.91;4908821;29;20051;-74
2024/02/04 08:02:44;;;;;;;2.42;2.33;;;;;;;4.43;100.00;100675.19;4892834;29;20572;-74
2024/02/04 08:05:10;;;;;;;0.82;0.82;;;;;;;4.56;100.00;100693.72;4907705;29;20112;-74
2024/02/04 08:07:36;;;;;;;4.22;3.20;;;;;;;4.59;100.00;100673.03;4908198;29;20091;-74
2024/02/04 08:10:01;;;;;;;1.25;0.93;;;;;;;4.44;100.00;100712.44;4906940;29;20499;-74
2024/02/04 08:12:27;;;;;;;2.90;2.78;;;;;;;4.58;100.00;100723.22;4893514;29;20405;-72
2024/02/04 08:14:52;;;;;;;2.35;2.25;;;;;;;4.28;100.00;100655.66;4906058;29;20052;-74
2024/02/04 08:17:18;;;;;;;4.47;4.15;;;;;;;4.63;100.00;100752.81;4901177;29;21291;-73
2024/02/04 08:19:43;;;;;;;1.35;1.30;;;;;;;4.45;100.00;100724.59;4901730;29;20052;-72
2024/02/04 08:22:09;;;;;;;2.05;1.95;;;;;;;4.71;100.00;100742.69;4903139;29;20042;-73
2024/02/04 08:24:36;;;;;;;1.67;1.58;;;;;;;4.70;100.00;100740.91;4906895;29;20607;-74
2024/02/04 08:27:01;;;;;;;0.88;0.88;;;;;;;4.47;100.00;100677.84;4904750;29;20040;-72
2024/02/04 08:29:27;;;;;;;0.73;0.73;;;;;;;4.35;100.00;100648.09;4908839;29;20048;-74
2024/02/04 08:31:53;;;;;;;1.50;1.40;;;;;;;5.02;100.00;100750.50;4907558;29;20070;-73
2024/02/04 08:34:21;;;;;;;1.40;1.30;;;;;;;4.53;100.00;100647.75;4906449;29;20107;-73
2024/02/04 08:36:47;;;;;;;0.95;0.95;;;;;;;5.14;100.00;100723.94;4909021;29;20032;-75
2024/02/04 08:39:12;;;;;;;0.93;0.93;;;;;;;5.22;100.00;100750.16;4902244;29;20044;-75
2024/02/04 08:41:38;;;;;;;2.63;2.47;;;;;;;4.98;100.00;100706.16;4897435;29;20060;-75
2024/02/04 08:44:03;;;;;;;9.25;8.38;;;;;;;5.26;100.00;100734.66;4898118;29;20139;-73
2024/02/04 08:46:29;;;;;;;0.75;0.75;;;;;;;5.40;100.00;100723.75;4902154;29;20119;-72
2024/02/04 08:48:54;;;;;;;0.55;0.55;;;;;;;5.49;100.00;100713.56;4901953;29;20107;-74
2024/02/04 08:51:20;;;;;;;1.90;1.80;;;;;;;5.02;100.00;100620.47;4899014;29;20048;-75
2024/02/04 08:53:45;;;;;;;1.98;1.88;;;;;;;5.38;100.00;100715.88;4908041;29;20029;-72
2024/02/04 08:56:11;;;;;;;3.28;3.08;;;;;;;5.51;100.00;100698.88;4882884;29;20156;-73
2024/02/04 08:58:37;;;;;;;0.45;0.45;;;;;;;5.54;100.00;100678.13;4887187;29;20057;-74
2024/02/04 09:01:05;;;;;;;10.43;8.68;;;;;;;5.72;100.00;100701.13;4886665;29;20474;-75
2024/02/04 09:03:31;;;;;;;1.70;1.60;;;;;;;5.84;100.00;100710.97;4882541;29;20051;-74
2024/02/04 09:05:57;;;;;;;3.92;3.72;;;;;;;5.77;100.00;100711.66;4882469;29;20462;-74
2024/02/04 09:08:23;;;;;;;3.50;3.20;;;;;;;5.43;100.00;100656.16;4884774;29;20049;-74
2024/02/04 09:10:48;;;;;;;4.93;4.60;;;;;;;5.90;100.00;100724.16;4881744;29;20055;-74
2024/02/04 09:13:14;;;;;;;4.50;3.65;;;;;;;5.75;100.00;100702.94;4889947;29;20155;-74
2024/02/04 09:15:39;;;;;;;1.83;1.73;;;;;;;5.63;100.00;100712.19;4886068;29;20099;-74
2024/02/04 09:18:05;;;;;;;10.30;8.80;;;;;;;5.85;100.00;100730.94;4885172;29;20120;-74
2024/02/04 09:20:30;;;;;;;0.90;0.90;;;;;;;5.89;100.00;100724.97;4888986;29;20200;-74
2024/02/04 09:22:56;;;;;;;3.83;1.63;;;;;;;5.43;100.00;100643.16;4882324;29;20052;-78
2024/02/04 09:25:21;;;;;;;1.75;1.65;;;;;;;5.78;100.00;100721.22;4886548;29;20088;-76
2024/02/04 09:27:47;;;;;;;1.35;1.25;;;;;;;5.84;100.00;100724.00;4888500;29;20037;-74
2024/02/04 09:30:13;;;;;;;0.30;0.30;;;;;;;5.93;100.00;100722.47;4887211;29;20525;-75
2024/02/04 09:32:38;;;;;;;0.90;0.90;;;;;;;5.98;100.00;100722.63;4892263;29;20477;-75
2024/02/04 09:35:04;;;;;;;1.63;1.52;;;;;;;5.72;100.00;100664.69;4871594;29;20072;-77
2024/02/04 09:37:30;;;;;;;4.85;4.57;;;;;;;5.71;100.00;100668.13;4886732;29;20116;-80
2024/02/04 09:39:55;;;;;;;0.30;0.30;;;;;;;5.85;100.00;100718.81;4892700;29;20289;-75
2024/02/04 09:42:23;;;;;;;1.00;1.00;;;;;;;6.06;100.00;100710.69;4884618;29;20037;-76
2024/02/04 09:44:52;;;;;;;0.22;0.22;;;;;;;6.13;100.00;100699.53;4887966;29;20056;-74
2024/02/04 09:47:20;;;;;;;1.02;1.02;;;;;;;6.16;100.00;100692.63;4890527;29;20124;-73
2024/02/04 09:49:46;;;;;;;4.25;4.00;;;;;;;5.97;100.00;100632.31;4869355;29;20052;-75
2024/02/04 09:52:13;;;;;;;14.45;8.15;;;;;;;6.07;100.00;100675.94;4885119;29;20037;-74
2024/02/04 09:54:45;;;;;;;1.55;1.45;;;;;;;6.10;100.00;100669.94;4890562;29;20060;-75
2024/02/04 09:57:12;;;;;;;0.40;0.40;;;;;;;5.24;100.00;100605.41;4891863;29;20059;-74
2024/02/04 09:59:38;;;;;;;1.17;1.08;;;;;;;5.97;100.00;100696.53;4889725;29;20040;-74
2024/02/04 10:02:05;;;;;;;2.08;0.93;;;;;;;5.99;100.00;100654.03;4890631;29;20083;-74
2024/02/04 10:04:31;;;;;;;7.15;4.10;;;;;;;5.80;100.00;100618.88;4904205;29;20139;-75
2024/02/04 10:06:56;;;;;;;9.52;2.22;;;;;;;5.90;100.00;100669.47;4887504;29;20036;-76
2024/02/04 10:09:22;;;;;;;4.15;3.92;;;;;;;6.24;100.00;100685.88;4876132;29;20064;-73
2024/02/04 10:11:48;;;;;;;1.60;1.50;;;;;;;6.20;100.00;100699.66;4886985;29;20053;-74
2024/02/04 10:14:15;;;;;;;3.38;3.13;;;;;;;6.45;100.00;100703.69;4886068;29;20474;-77
2024/02/04 10:16:41;;;;;;;0.40;0.40;;;;;;;6.50;100.00;100699.44;4882339;29;20105;-75
2024/02/04 10:19:07;;;;;;;4.07;3.58;;;;;;;6.03;100.00;100609.00;4896665;29;20195;-75
2024/02/04 10:21:32;;;;;;;1.48;1.38;;;;;;;6.51;100.00;100699.50;4887318;29;20052;-74
2024/02/04 10:23:59;;;;;;;5.85;2.63;;;;;;;6.44;100.00;100705.44;4886368;29;20051;-75
2024/02/04 10:26:30;;;;;;;4.47;4.28;;;;;;;6.50;100.00;100679.47;4889874;29;20040;-75
2024/02/04 10:28:58;;;;;;;2.05;1.95;;;;;;;6.71;100.00;100699.03;4884389;29;20056;-75
2024/02/04 10:31:24;;;;;;;3.75;3.50;;;;;;;6.67;100.00;100703.31;4892526;29;20033;-75
2024/02/04 10:33:51;;;;;;;0.50;0.50;;;;;;;6.10;100.00;100599.59;4888040;29;20059;-74
2024/02/04 10:36:17;;;;;;;3.90;3.78;;;;;;;6.63;100.00;100684.97;4887174;29;20116;-75
2024/02/04 10:38:42;;;;;;;0.40;0.40;;;;;;;6.72;100.00;100696.44;4887212;29;20041;-75
2024/02/04 10:41:14;;;;;;;0.40;0.40;;;;;;;6.83;100.00;100688.81;4887897;29;20084;-74
2024/02/04 10:43:42;;;;;;;2.38;2.17;;;;;;;6.17;100.00;100583.25;4882400;29;20056;-74
2024/02/04 10:46:17;;;;;;;4.63;2.72;;;;;;;6.69;100.00;100670.28;4881880;29;21353;-75
2024/02/04 10:48:45;;;;;;;1.50;1.40;;;;;;;6.13;100.00;100587.53;4890845;29;20139;-75
2024/02/04 10:51:14;;;;;;;0.85;0.65;;;;;;;6.47;100.00;100589.91;4888623;29;20053;-74
2024/02/04 10:53:44;;;;;;;3.10;2.90;;;;;;;6.91;100.00;100673.34;4896677;29;20057;-76
2024/02/04 10:56:28;;;;;;;0.47;0.47;;;;;;;6.38;100.00;100592.34;4890966;29;20064;-75
2024/02/04 10:58:55;;;;;;;;;;;;;;;6.98;100.00;100662.16;4891566;29;20071;-77
2024/02/04 11:01:22;;;;;;;1.55;1.42;;;;;;;6.54;100.00;100565.72;4889081;29;20356;-76
2024/02/04 11:03:50;;;;;;;1.13;1.08;;;;;;;6.99;100.00;100666.53;4891835;29;20036;-74
2024/02/04 11:06:18;;;;;;;1.13;1.02;;;;;;;6.50;100.00;100592.56;4888325;29;20052;-78
2024/02/04 11:08:44;;;;;;;1.42;1.35;;;;;;;7.02;100.00;100657.88;4885687;29;20100;-75
2024/02/04 11:11:09;;;;;;;0.52;0.52;;;;;;;6.58;100.00;100582.28;4884343;29;20716;-77
2024/02/04 11:13:37;;;;;;;1.38;1.27;;;;;;;6.79;100.00;100660.03;4869624;29;20131;-76
2024/02/04 11:16:12;;;;;;;1.95;1.85;;;;;;;6.96;100.00;100643.88;4887420;29;20032;-75
2024/02/04 11:18:55;;;;;;;1.20;1.17;;;;;;;7.18;100.00;100645.13;4885354;29;20425;-73
2024/02/04 11:21:52;;;;;;;0.40;0.40;;;;;;;7.31;100.00;100656.66;4889429;29;20059;-74